Time;durP1;ratioP1;P1;durP2;ratioP2;P2;SDS_P1;SDS_P2;PMS_P1;PMS_P2;Temp;Humidity;BMP_temperature;BMP_pressure;BME280_temperature;BME280_humidity;BME280_pressure;Samples;Min_cycle;Max_cycle;Signal;HPM_P1;HPM_P2
2022/06/30 00:00:57;;;;;;;;;;;;;;;16.54;84.48;98872.19;8320984;28;19988;-78
2022/06/30 00:04:59;;;;;;;;;;;;;;;16.39;85.12;98860.50;8291270;28;19960;-78
2022/06/30 00:09:01;;;;;;;;;;;;;;;16.36;85.30;98870.22;8329235;28;20305;-78
2022/06/30 00:13:03;;;;;;;;;;;;;;;16.29;86.04;98872.19;8292862;28;20408;-76
2022/06/30 00:17:05;;;;;;;;;;;;;;;16.23;85.74;98877.66;8291456;28;19929;-78
2022/06/30 00:21:07;;;;;;;;;;;;;;;16.18;85.95;98874.38;8315418;28;19964;-78
2022/06/30 00:25:09;;;;;;;;;;;;;;;16.15;86.06;98874.44;8292369;28;19983;-78
2022/06/30 00:29:11;;;;;;;;;;;;;;;16.14;86.30;98880.59;8310071;28;19940;-78
2022/06/30 00:33:13;;;;;;;;;;;;;;;16.18;85.81;98882.22;8263642;28;19964;-78
2022/06/30 00:37:15;;;;;;;;;;;;;;;16.18;85.54;98883.06;8248380;28;19929;-78
2022/06/30 00:41:16;;;;;;;;;;;;;;;16.13;85.40;98871.88;8269001;28;19936;-78
2022/06/30 00:45:19;;;;;;;;;;;;;;;16.10;85.67;98866.75;8259964;28;20630;-78
2022/06/30 00:49:21;;;;;;;;;;;;;;;16.06;85.71;98873.03;8302413;28;19929;-78
2022/06/30 00:53:23;;;;;;;;;;;;;;;15.99;85.78;98871.53;8314021;28;19929;-78
2022/06/30 00:57:29;;;;;;;;;;;;;;;15.93;86.00;98874.34;8325267;28;20060;-78
2022/06/30 01:01:31;;;;;;;;;;;;;;;15.92;86.15;98870.00;8297454;28;19929;-78
2022/06/30 01:05:33;;;;;;;;;;;;;;;15.89;86.52;98870.13;8294689;28;19930;-78
2022/06/30 01:13:58;;;;;;;;;;;;;;;15.82;87.16;98876.50;8298682;28;19944;-78
2022/06/30 01:17:59;;;;;;;;;;;;;;;15.79;87.31;98861.72;8322063;28;19940;-78
2022/06/30 01:22:01;;;;;;;;;;;;;;;15.74;87.25;98857.56;8305588;28;19973;-78
2022/06/30 01:26:02;;;;;;;;;;;;;;;15.69;87.12;98858.56;8284407;28;20416;-78
2022/06/30 01:30:04;;;;;;;;;;;;;;;15.68;86.98;98850.78;8306003;28;19940;-78
2022/06/30 01:34:06;;;;;;;;;;;;;;;15.65;87.22;98846.50;8312772;28;19961;-77
2022/06/30 01:38:07;;;;;;;;;;;;;;;15.60;86.80;98847.53;8307888;28;20312;-78
2022/06/30 01:42:08;;;;;;;;;;;;;;;15.54;86.96;98852.97;8287562;28;20404;-77
2022/06/30 01:46:10;;;;;;;;;;;;;;;15.51;87.11;98853.91;8307736;28;19940;-78
2022/06/30 01:50:16;;;;;;;;;;;;;;;15.42;87.41;98855.06;8324088;28;20329;-78
2022/06/30 01:54:18;;;;;;;;;;;;;;;15.37;88.08;98853.50;8286860;28;20012;-79
2022/06/30 01:58:20;;;;;;;;;;;;;;;15.32;87.90;98856.28;8290793;28;19934;-78
2022/06/30 02:02:21;;;;;;;;;;;;;;;15.28;88.24;98854.66;8289162;28;19963;-78
2022/06/30 02:06:22;;;;;;;;;;;;;;;15.26;88.39;98855.59;8318675;28;19972;-78
2022/06/30 02:10:24;;;;;;;;;;;;;;;15.26;88.33;98860.84;8317963;28;19964;-78
2022/06/30 02:14:26;;;;;;;;;;;;;;;15.21;88.22;98870.59;8290898;28;19980;-78
2022/06/30 02:18:28;;;;;;;;;;;;;;;15.14;88.26;98869.09;8288151;28;19979;-78
2022/06/30 02:22:30;;;;;;;;;;;;;;;15.08;88.52;98867.50;8288787;28;20020;-78
2022/06/30 02:26:31;;;;;;;;;;;;;;;15.07;88.61;98861.41;8316107;28;19940;-78
2022/06/30 02:30:33;;;;;;;;;;;;;;;15.05;89.26;98852.75;8320134;28;20338;-78
2022/06/30 02:34:36;;;;;;;;;;;;;;;15.05;89.44;98854.53;8330321;28;20020;-78
2022/06/30 02:38:38;;;;;;;;;;;;;;;15.03;89.36;98853.72;8290519;28;19929;-78
2022/06/30 02:42:39;;;;;;;;;;;;;;;14.95;89.16;98851.34;8299317;28;19933;-79
2022/06/30 02:46:41;;;;;;;;;;;;;;;14.87;89.56;98842.00;8313404;28;19929;-78
2022/06/30 02:50:44;;;;;;;;;;;;;;;14.82;89.66;98845.63;8307780;28;19930;-78
2022/06/30 02:54:46;;;;;;;;;;;;;;;14.75;89.56;98851.09;8315443;28;19929;-78
2022/06/30 02:58:49;;;;;;;;;;;;;;;14.72;89.80;98851.16;8301347;28;20012;-78
2022/06/30 03:02:50;;;;;;;;;;;;;;;14.74;89.79;98849.41;8308714;28;19969;-78
2022/06/30 03:06:55;;;;;;;;;;;;;;;14.74;89.59;98847.63;8283199;28;19992;-78
2022/06/30 03:10:56;;;;;;;;;;;;;;;14.71;89.51;98846.84;8311485;28;20020;-78
2022/06/30 03:15:00;;;;;;;;;;;;;;;14.69;89.46;98849.50;8285042;28;20082;-78
2022/06/30 03:19:02;;;;;;;;;;;;;;;14.59;89.58;98858.53;8298610;28;19926;-79
2022/06/30 03:23:03;;;;;;;;;;;;;;;14.56;89.87;98865.63;8325702;28;19926;-78
2022/06/30 03:27:05;;;;;;;;;;;;;;;14.57;89.97;98864.72;8320694;28;20040;-78
2022/06/30 03:31:06;;;;;;;;;;;;;;;14.57;89.91;98862.09;8286679;28;20395;-78
2022/06/30 03:35:09;;;;;;;;;;;;;;;14.50;90.03;98856.19;8324862;28;19979;-77
2022/06/30 03:39:10;;;;;;;;;;;;;;;14.43;90.31;98854.63;8273343;28;19948;-78
2022/06/30 03:43:12;;;;;;;;;;;;;;;14.40;90.83;98857.31;8290492;28;19992;-78
2022/06/30 03:47:13;;;;;;;;;;;;;;;14.41;90.26;98843.38;8304876;28;19929;-77
2022/06/30 03:51:15;;;;;;;;;;;;;;;14.42;90.25;98842.47;8315563;28;20261;-78
2022/06/30 03:55:17;;;;;;;;;;;;;;;14.37;90.75;98840.00;8313742;28;19976;-78
2022/06/30 03:59:18;;;;;;;;;;;;;;;14.33;90.98;98835.72;8294751;28;20129;-78
2022/06/30 04:03:20;;;;;;;;;;;;;;;14.24;90.89;98843.84;8270206;28;19957;-78
2022/06/30 04:07:21;;;;;;;;;;;;;;;14.27;91.86;98845.50;8294415;28;20312;-78
2022/06/30 04:11:23;;;;;;;;;;;;;;;14.35;91.92;98846.97;8313521;28;19948;-78
2022/06/30 04:15:25;;;;;;;;;;;;;;;14.44;91.96;98849.38;8306243;28;20195;-78
2022/06/30 04:19:26;;;;;;;;;;;;;;;14.47;91.78;98849.28;8283810;28;19929;-78
2022/06/30 04:23:28;;;;;;;;;;;;;;;14.52;92.26;98852.59;8302713;28;20024;-77
2022/06/30 04:27:32;;;;;;;;;;;;;;;14.62;92.23;98845.38;8301014;28;19925;-78
2022/06/30 04:35:53;;;;;;;;;;;;;;;14.85;92.25;98829.00;8310433;28;19937;-78
2022/06/30 04:41:23;;;;;;;;;;;;;;;15.00;92.34;98817.22;8318195;28;19930;-78
2022/06/30 04:44:16;;;;;;;;;;;;;;;15.17;91.62;98814.06;8300240;28;19976;-78
2022/06/30 04:48:19;;;;;;;;;;;;;;;15.29;91.41;98804.06;8297388;28;19934;-78
2022/06/30 04:52:21;;;;;;;;;;;;;;;15.45;90.93;98804.41;8311478;28;19940;-78
2022/06/30 04:56:23;;;;;;;;;;;;;;;15.56;90.11;98814.50;8283147;28;19973;-78
2022/06/30 05:00:24;;;;;;;;;;;;;;;15.67;89.00;98812.41;8278551;28;19929;-78
2022/06/30 05:04:26;;;;;;;;;;;;;;;15.88;88.79;98800.34;8305432;28;19925;-78
2022/06/30 05:08:28;;;;;;;;;;;;;;;16.04;88.60;98795.41;8319577;28;20004;-78
2022/06/30 05:12:30;;;;;;;;;;;;;;;16.22;87.29;98798.22;8305575;28;19936;-78
2022/06/30 05:16:31;;;;;;;;;;;;;;;16.39;86.99;98799.38;8278904;28;19940;-77
2022/06/30 05:20:33;;;;;;;;;;;;;;;16.58;86.11;98800.38;8285757;28;19980;-78
2022/06/30 05:28:55;;;;;;;;;;;;;;;17.05;86.32;98805.53;8284414;28;19936;-79
2022/06/30 05:32:58;;;;;;;;;;;;;;;17.28;86.86;98802.88;8315060;28;20234;-79
2022/06/30 05:37:00;;;;;;;;;;;;;;;17.75;85.51;98805.28;8327927;28;19937;-79
2022/06/30 05:41:02;;;;;;;;;;;;;;;18.29;82.83;98802.00;8304387;28;19929;-79
2022/06/30 05:45:06;;;;;;;;;;;;;;;18.77;80.31;98803.34;8303490;28;19980;-80
2022/06/30 05:49:20;;;;;;;;;;;;;;;19.45;77.77;98808.84;8310161;28;20020;-80
2022/06/30 05:53:38;;;;;;;;;;;;;;;20.05;75.65;98804.00;8289620;28;20008;-80
2022/06/30 05:58:16;;;;;;;;;;;;;;;20.65;72.57;98799.94;8309990;28;19940;-80
2022/06/30 06:02:39;;;;;;;;;;;;;;;21.24;69.99;98802.78;8307164;28;19929;-79
2022/06/30 06:06:43;;;;;;;;;;;;;;;21.73;67.69;98810.53;8315866;28;19929;-78
2022/06/30 06:10:44;;;;;;;;;;;;;;;22.24;66.29;98815.34;8312402;28;19936;-80
2022/06/30 06:14:45;;;;;;;;;;;;;;;22.73;63.40;98807.00;8305970;28;19925;-79
2022/06/30 06:18:47;;;;;;;;;;;;;;;23.19;60.55;98820.84;8306178;28;19961;-80
2022/06/30 06:22:48;;;;;;;;;;;;;;;23.65;60.43;98811.66;8311818;28;19941;-80
2022/06/30 06:26:50;;;;;;;;;;;;;;;24.06;56.62;98809.72;8304014;28;20017;-80
2022/06/30 06:30:51;;;;;;;;;;;;;;;24.23;55.59;98805.03;8302338;28;20711;-80
2022/06/30 06:34:54;;;;;;;;;;;;;;;24.71;55.07;98811.38;8319146;28;19929;-81
2022/06/30 06:38:57;;;;;;;;;;;;;;;25.15;54.09;98807.34;8308078;28;20230;-80
2022/06/30 06:43:00;;;;;;;;;;;;;;;25.26;54.32;98808.22;8320098;28;19960;-80
2022/06/30 06:47:05;;;;;;;;;;;;;;;25.22;54.20;98803.25;8297246;28;19940;-80
2022/06/30 06:51:07;;;;;;;;;;;;;;;25.55;54.19;98806.06;8293570;28;19925;-80
2022/06/30 06:55:09;;;;;;;;;;;;;;;25.72;54.53;98807.50;8317077;28;19925;-80
2022/06/30 06:59:11;;;;;;;;;;;;;;;25.84;52.94;98824.31;8290535;28;20404;-80
2022/06/30 07:03:15;;;;;;;;;;;;;;;25.94;52.54;98809.34;8308534;28;19988;-80
2022/06/30 07:07:17;;;;;;;;;;;;;;;26.18;51.77;98817.25;8308142;28;20308;-80
2022/06/30 07:11:19;;;;;;;;;;;;;;;26.41;50.99;98813.69;8325849;28;20269;-79
2022/06/30 07:15:21;;;;;;;;;;;;;;;26.28;50.75;98809.41;8304346;28;20144;-79
2022/06/30 07:19:23;;;;;;;;;;;;;;;26.56;50.65;98800.97;8285002;28;19929;-79
2022/06/30 07:23:24;;;;;;;;;;;;;;;26.95;48.69;98804.09;8287721;28;19925;-80
2022/06/30 07:27:30;;;;;;;;;;;;;;;27.26;49.26;98792.63;8286959;28;19929;-80
2022/06/30 07:31:32;;;;;;;;;;;;;;;27.46;48.91;98796.28;8301936;28;19979;-80
2022/06/30 07:35:34;;;;;;;;;;;;;;;27.78;48.05;98798.13;8319889;28;19965;-80
2022/06/30 07:44:33;;;;;;;;;;;;;;;28.19;46.35;98792.78;8292691;28;19921;-79
2022/06/30 07:48:35;;;;;;;;;;;;;;;27.93;46.53;98789.66;8300097;28;20226;-80
2022/06/30 07:52:36;;;;;;;;;;;;;;;28.09;46.70;98796.34;8286495;28;20031;-80
2022/06/30 07:56:38;;;;;;;;;;;;;;;28.29;46.08;98793.69;8324582;28;19939;-77
2022/06/30 08:00:41;;;;;;;;;;;;;;;28.36;45.58;98790.47;8329009;28;19948;-77
2022/06/30 08:04:42;;;;;;;;;;;;;;;28.59;45.52;98776.81;8277016;28;19933;-77
2022/06/30 08:08:44;;;;;;;;;;;;;;;28.93;46.34;98775.66;8294578;28;19972;-77
2022/06/30 08:12:45;;;;;;;;;;;;;;;29.13;45.40;98766.69;8285688;28;19947;-78
2022/06/30 08:16:47;;;;;;;;;;;;;;;29.31;44.48;98762.34;8313999;28;20028;-76
2022/06/30 08:20:48;;;;;;;;;;;;;;;29.53;43.92;98763.06;8266222;28;19937;-77
2022/06/30 08:24:50;;;;;;;;;;;;;;;29.59;42.75;98755.28;8282397;28;19933;-76
2022/06/30 08:28:51;;;;;;;;;;;;;;;29.63;41.92;98753.19;8304361;28;20020;-77
2022/06/30 08:32:53;;;;;;;;;;;;;;;29.75;41.53;98752.88;8290304;28;19929;-76
2022/06/30 08:36:54;;;;;;;;;;;;;;;29.67;41.33;98747.41;8315213;28;19929;-76
2022/06/30 08:45:20;;;;;;;;;;;;;;;29.87;41.88;98734.81;8321123;28;20029;-76
2022/06/30 08:49:22;;;;;;;;;;;;;;;29.91;40.54;98738.91;8310396;28;19976;-77
2022/06/30 08:53:24;;;;;;;;;;;;;;;30.09;41.44;98744.38;8313623;28;20047;-76
2022/06/30 08:57:27;;;;;;;;;;;;;;;30.19;40.74;98742.50;8279992;28;20672;-77
2022/06/30 09:01:28;;;;;;;;;;;;;;;30.25;39.44;98731.19;8296356;28;20029;-77
2022/06/30 09:05:31;;;;;;;;;;;;;;;30.39;40.58;98737.91;8286818;28;19929;-77
2022/06/30 09:09:32;;;;;;;;;;;;;;;30.34;39.81;98738.38;8288085;28;19929;-77
2022/06/30 09:13:41;;;;;;;;;;;;;;;30.22;39.22;98728.81;8282808;28;19936;-78
2022/06/30 09:17:46;;;;;;;;;;;;;;;30.06;39.53;98724.09;8311465;28;19936;-77
2022/06/30 09:22:04;;;;;;;;;;;;;;;29.42;39.87;98730.06;8307563;28;19961;-77
2022/06/30 09:26:07;;;;;;;;;;;;;;;29.68;41.53;98735.72;8302813;28;19933;-78
2022/06/30 09:30:13;;;;;;;;;;;;;;;30.08;41.06;98726.63;8276107;28;20024;-77
2022/06/30 09:34:21;;;;;;;;;;;;;;;30.53;40.40;98721.34;8308690;28;19939;-77
2022/06/30 09:38:23;;;;;;;;;;;;;;;30.96;39.15;98723.34;8288108;28;19988;-78
2022/06/30 09:42:47;;;;;;;;;;;;;;;31.29;37.60;98725.53;8290157;28;19940;-78
2022/06/30 09:47:03;;;;;;;;;;;;;;;31.48;37.02;98720.00;8306283;28;20040;-78
2022/06/30 09:51:26;;;;;;;;;;;;;;;31.44;33.16;98711.41;8305329;28;20241;-79
2022/06/30 09:55:48;;;;;;;;;;;;;;;31.44;33.70;98708.72;8308888;28;19929;-79
2022/06/30 10:00:18;;;;;;;;;;;;;;;31.45;35.95;98710.41;8304849;28;19929;-79
2022/06/30 10:04:28;;;;;;;;;;;;;;;31.58;35.19;98708.13;8309164;28;19929;-78
2022/06/30 10:08:32;;;;;;;;;;;;;;;31.68;34.74;98705.38;8288601;28;19991;-78
2022/06/30 10:12:36;;;;;;;;;;;;;;;31.46;34.24;98700.53;8306520;28;19929;-80
2022/06/30 10:16:46;;;;;;;;;;;;;;;31.30;34.19;98697.69;8308805;28;19936;-78
2022/06/30 10:20:58;;;;;;;;;;;;;;;31.16;32.90;98694.53;8321565;28;20234;-78
2022/06/30 10:25:18;;;;;;;;;;;;;;;31.38;33.35;98705.81;8281221;28;20025;-78
2022/06/30 10:29:21;;;;;;;;;;;;;;;31.67;34.89;98695.63;8293578;28;20346;-78
2022/06/30 10:33:56;;;;;;;;;;;;;;;31.74;32.79;98691.34;8316037;28;19929;-76
2022/06/30 10:38:39;;;;;;;;;;;;;;;31.90;36.15;98687.06;8315130;28;20083;-78
2022/06/30 10:42:47;;;;;;;;;;;;;;;31.31;33.38;98685.97;8310196;28;19933;-78
2022/06/30 10:46:55;;;;;;;;;;;;;;;30.89;35.13;98674.03;8293897;28;20589;-78
2022/06/30 10:51:15;;;;;;;;;;;;;;;30.54;36.08;98668.59;8278546;28;20011;-78
2022/06/30 10:55:24;;;;;;;;;;;;;;;30.90;36.52;98662.28;8313456;28;19929;-77
2022/06/30 10:59:42;;;;;;;;;;;;;;;31.13;34.36;98653.78;8304936;28;20028;-77
2022/06/30 11:04:13;;;;;;;;;;;;;;;31.55;35.01;98643.19;8286261;28;20379;-77
2022/06/30 11:09:20;;;;;;;;;;;;;;;31.94;34.84;98648.97;8298295;28;19929;-77
2022/06/30 11:13:07;;;;;;;;;;;;;;;32.10;32.49;98643.69;8290210;28;19940;-77
2022/06/30 11:17:15;;;;;;;;;;;;;;;32.10;32.01;98638.31;8267535;28;20008;-77
2022/06/30 11:21:23;;;;;;;;;;;;;;;32.11;31.78;98634.63;8274856;28;19940;-78
2022/06/30 11:30:10;;;;;;;;;;;;;;;32.39;31.88;98626.38;8279796;28;19929;-77
2022/06/30 11:34:38;;;;;;;;;;;;;;;32.60;32.28;98613.31;8299163;28;19930;-77
2022/06/30 11:38:42;;;;;;;;;;;;;;;32.77;32.84;98624.91;8277555;28;19940;-76
2022/06/30 11:42:43;;;;;;;;;;;;;;;32.75;30.54;98617.03;8307070;28;19929;-75
2022/06/30 11:47:04;;;;;;;;;;;;;;;32.94;32.13;98612.34;8306158;28;20327;-75
2022/06/30 11:51:09;;;;;;;;;;;;;;;33.05;31.80;98609.34;8277491;28;19929;-75
2022/06/30 11:55:15;;;;;;;;;;;;;;;33.11;29.93;98605.13;8301669;28;19929;-76
2022/06/30 11:59:17;;;;;;;;;;;;;;;33.09;30.58;98604.47;8294489;28;19930;-75
2022/06/30 12:03:19;;;;;;;;;;;;;;;33.22;29.31;98599.41;8302084;28;19941;-75
2022/06/30 12:07:22;;;;;;;;;;;;;;;33.35;30.33;98603.25;8289491;28;19996;-75
2022/06/30 12:11:29;;;;;;;;;;;;;;;33.45;29.03;98599.56;8277296;28;20381;-76
2022/06/30 12:15:31;;;;;;;;;;;;;;;33.35;29.31;98595.19;8302647;28;20389;-75
2022/06/30 12:19:32;;;;;;;;;;;;;;;33.09;28.59;98580.25;8302151;28;19929;-75
2022/06/30 12:23:34;;;;;;;;;;;;;;;33.06;29.62;98581.44;8312214;28;19929;-76
2022/06/30 12:27:36;;;;;;;;;;;;;;;33.13;30.78;98581.56;8299700;28;19929;-75
2022/06/30 12:31:38;;;;;;;;;;;;;;;33.14;29.74;98583.25;8298173;28;19941;-76
2022/06/30 12:35:39;;;;;;;;;;;;;;;33.07;30.28;98582.25;8265771;28;19929;-76
2022/06/30 12:39:45;;;;;;;;;;;;;;;33.07;28.89;98572.34;8234073;28;19969;-75
2022/06/30 12:43:50;;;;;;;;;;;;;;;33.32;31.38;98576.69;8225808;28;20016;-75
2022/06/30 12:47:52;;;;;;;;;;;;;;;33.38;30.62;98567.09;8254930;28;19930;-75
2022/06/30 12:51:53;;;;;;;;;;;;;;;33.41;29.58;98572.16;8238732;28;19933;-76
2022/06/30 12:55:58;;;;;;;;;;;;;;;33.44;29.81;98566.41;8265677;28;19941;-76
2022/06/30 13:00:00;;;;;;;;;;;;;;;33.40;30.11;98567.78;8260531;28;19930;-75
2022/06/30 13:04:06;;;;;;;;;;;;;;;32.68;29.63;98566.78;8243794;28;19944;-73
2022/06/30 13:08:07;;;;;;;;;;;;;;;32.15;31.21;98565.31;8277772;28;19965;-77
2022/06/30 13:12:09;;;;;;;;;;;;;;;32.19;30.61;98557.75;8259186;28;20017;-75
2022/06/30 13:16:11;;;;;;;;;;;;;;;31.85;32.38;98555.97;8259310;28;19973;-75
2022/06/30 13:20:13;;;;;;;;;;;;;;;32.23;32.65;98556.41;8249771;28;19993;-75
2022/06/30 13:24:15;;;;;;;;;;;;;;;31.91;32.04;98547.25;8273978;28;19972;-75
2022/06/30 13:28:16;;;;;;;;;;;;;;;31.63;33.73;98546.63;8255426;28;19973;-75
2022/06/30 13:32:18;;;;;;;;;;;;;;;31.80;31.25;98539.53;8255805;28;20637;-77
2022/06/30 13:36:19;;;;;;;;;;;;;;;32.14;31.72;98542.97;8313320;28;19929;-77
2022/06/30 13:40:21;;;;;;;;;;;;;;;32.49;31.89;98537.50;8292590;28;19929;-75
2022/06/30 13:44:26;;;;;;;;;;;;;;;32.88;31.37;98537.72;8286877;28;19929;-74
2022/06/30 13:48:27;;;;;;;;;;;;;;;32.86;29.21;98534.38;8309611;28;19929;-75
2022/06/30 13:52:29;;;;;;;;;;;;;;;33.05;28.54;98534.84;8303579;28;20528;-75
2022/06/30 13:56:30;;;;;;;;;;;;;;;32.87;27.06;98520.75;8290113;28;19997;-75
2022/06/30 14:00:32;;;;;;;;;;;;;;;32.88;28.95;98525.13;8301758;28;19987;-75
2022/06/30 14:04:34;;;;;;;;;;;;;;;32.69;30.67;98522.75;8283308;28;20040;-75
2022/06/30 14:08:36;;;;;;;;;;;;;;;32.80;30.86;98527.78;8282428;28;20535;-75
2022/06/30 14:12:38;;;;;;;;;;;;;;;32.97;30.64;98510.63;8300377;28;19940;-75
2022/06/30 14:16:40;;;;;;;;;;;;;;;32.88;32.08;98503.59;8292243;28;20354;-75
2022/06/30 14:20:43;;;;;;;;;;;;;;;32.58;31.13;98504.25;8268568;28;20024;-75
2022/06/30 14:24:44;;;;;;;;;;;;;;;32.24;30.97;98497.13;8289227;28;20028;-74
2022/06/30 14:28:46;;;;;;;;;;;;;;;32.27;34.49;98490.63;8281870;28;19930;-74
2022/06/30 14:32:47;;;;;;;;;;;;;;;32.34;32.00;98486.28;8303256;28;19980;-74
2022/06/30 14:36:52;;;;;;;;;;;;;;;31.96;31.54;98474.25;8303081;28;20008;-76
2022/06/30 14:40:53;;;;;;;;;;;;;;;31.53;31.74;98479.63;8312814;28;19937;-78
2022/06/30 14:44:55;;;;;;;;;;;;;;;31.03;34.09;98489.41;8286722;28;19933;-78
2022/06/30 14:48:56;;;;;;;;;;;;;;;30.41;36.82;98496.63;8302032;28;19940;-77
2022/06/30 14:53:09;;;;;;;;;;;;;;;30.11;38.36;98498.69;8323659;28;19929;-78
2022/06/30 14:57:10;;;;;;;;;;;;;;;30.44;41.01;98502.53;8284724;28;19930;-77
2022/06/30 15:01:12;;;;;;;;;;;;;;;30.75;40.40;98516.38;8306041;28;20041;-78
2022/06/30 15:05:15;;;;;;;;;;;;;;;30.68;40.03;98524.19;8313346;28;19929;-78
2022/06/30 15:09:16;;;;;;;;;;;;;;;30.42;39.42;98555.41;8306582;28;20357;-78
2022/06/30 15:13:18;;;;;;;;;;;;;;;30.31;39.64;98574.38;8321222;28;19969;-77
2022/06/30 15:17:19;;;;;;;;;;;;;;;30.22;39.71;98577.97;8286427;28;19930;-78
2022/06/30 15:25:41;;;;;;;;;;;;;;;30.28;40.51;98601.47;8319933;28;19959;-77
2022/06/30 15:29:44;;;;;;;;;;;;;;;30.40;40.61;98616.34;8311968;28;19976;-77
2022/06/30 15:33:45;;;;;;;;;;;;;;;30.37;40.07;98644.28;8336670;28;20012;-77
2022/06/30 15:37:47;;;;;;;;;;;;;;;29.99;40.12;98668.56;8276024;28;19977;-77
2022/06/30 15:41:49;;;;;;;;;;;;;;;29.58;41.10;98680.50;8325580;28;19968;-77
2022/06/30 15:45:50;;;;;;;;;;;;;;;29.13;42.01;98715.88;8309426;28;20005;-77
2022/06/30 15:49:53;;;;;;;;;;;;;;;28.20;43.34;98746.41;8310642;28;19972;-77
2022/06/30 15:53:55;;;;;;;;;;;;;;;27.53;44.91;98802.81;8311706;28;19929;-77
2022/06/30 15:57:56;;;;;;;;;;;;;;;26.83;45.85;98832.56;8325376;28;19969;-77
2022/06/30 16:01:58;;;;;;;;;;;;;;;26.01;47.18;98834.50;8304160;28;20452;-76
2022/06/30 16:06:00;;;;;;;;;;;;;;;25.59;48.93;98827.97;8299949;28;19929;-76
2022/06/30 16:10:02;;;;;;;;;;;;;;;25.21;49.51;98828.16;8280693;28;19951;-77
2022/06/30 16:14:04;;;;;;;;;;;;;;;24.77;49.10;98832.16;8306676;28;20503;-77
2022/06/30 16:18:05;;;;;;;;;;;;;;;24.24;50.59;98835.94;8289559;28;20349;-77
2022/06/30 16:22:07;;;;;;;;;;;;;;;23.95;51.90;98841.41;8303792;28;19968;-76
2022/06/30 16:26:09;;;;;;;;;;;;;;;23.54;51.52;98843.31;8280499;28;19929;-77
2022/06/30 16:30:14;;;;;;;;;;;;;;;23.20;50.94;98872.88;8304358;28;20032;-77
2022/06/30 16:34:16;;;;;;;;;;;;;;;22.87;51.45;98875.00;8305911;28;19933;-77
2022/06/30 16:38:17;;;;;;;;;;;;;;;22.50;52.32;98901.06;8305601;28;19940;-77
2022/06/30 16:42:19;;;;;;;;;;;;;;;21.91;53.17;98918.69;8275206;28;19929;-76
2022/06/30 16:46:20;;;;;;;;;;;;;;;21.50;54.37;98944.81;8293836;28;19933;-76
2022/06/30 16:50:22;;;;;;;;;;;;;;;21.47;55.06;98954.72;8302821;28;19929;-76
2022/06/30 16:54:25;;;;;;;;;;;;;;;21.32;55.51;98953.75;8278662;28;19944;-77
2022/06/30 16:58:26;;;;;;;;;;;;;;;21.06;56.03;98949.88;8284607;28;19987;-76
2022/06/30 17:02:28;;;;;;;;;;;;;;;20.89;56.69;98937.59;8307559;28;20689;-76
2022/06/30 17:06:29;;;;;;;;;;;;;;;20.98;55.92;98917.75;8312191;28;20028;-77
2022/06/30 17:10:34;;;;;;;;;;;;;;;21.02;56.04;98929.88;8299712;28;20032;-76
2022/06/30 17:14:36;;;;;;;;;;;;;;;21.07;55.33;98930.47;8296579;28;19941;-76
2022/06/30 17:18:45;;;;;;;;;;;;;;;21.00;54.46;98950.19;8282893;28;19987;-76
2022/06/30 17:22:46;;;;;;;;;;;;;;;20.89;55.21;98961.34;8274045;28;19929;-76
2022/06/30 17:26:51;;;;;;;;;;;;;;;20.92;54.76;98949.78;8319727;28;19929;-77
2022/06/30 17:31:00;;;;;;;;;;;;;;;20.71;54.42;98944.69;8294771;28;19929;-76
2022/06/30 17:35:02;;;;;;;;;;;;;;;20.74;55.00;98965.66;8310758;28;19929;-77
2022/06/30 17:39:04;;;;;;;;;;;;;;;20.65;55.02;98971.41;8318324;28;19940;-77
2022/06/30 17:43:05;;;;;;;;;;;;;;;20.59;54.09;98958.53;8293744;28;20290;-77
2022/06/30 17:47:07;;;;;;;;;;;;;;;20.30;56.25;98967.06;8309377;28;19936;-77
2022/06/30 17:51:09;;;;;;;;;;;;;;;20.28;56.12;98967.13;8284503;28;19940;-77
2022/06/30 17:55:11;;;;;;;;;;;;;;;20.19;55.84;98962.31;8296393;28;20487;-76
2022/06/30 17:59:13;;;;;;;;;;;;;;;20.08;55.26;98977.81;8295199;28;19936;-77
2022/06/30 18:03:15;;;;;;;;;;;;;;;20.03;55.00;98974.56;8294161;28;19952;-77
2022/06/30 18:11:37;;;;;;;;;;;;;;;19.82;54.57;98976.47;8293475;28;20414;-78
2022/06/30 18:15:38;;;;;;;;;;;;;;;19.76;55.19;98982.91;8297780;28;19936;-77
2022/06/30 18:19:39;;;;;;;;;;;;;;;19.71;54.53;98987.53;8291104;28;19974;-77
2022/06/30 18:23:41;;;;;;;;;;;;;;;19.63;54.67;98994.94;8295363;28;19933;-77
2022/06/30 18:27:43;;;;;;;;;;;;;;;19.55;55.01;99004.97;8280828;28;20060;-77
2022/06/30 18:31:44;;;;;;;;;;;;;;;19.46;54.17;99021.19;8280445;28;19930;-77
2022/06/30 18:35:46;;;;;;;;;;;;;;;19.50;54.83;99025.38;8300266;28;20309;-77
2022/06/30 18:39:47;;;;;;;;;;;;;;;19.39;54.33;99020.63;8321471;28;19930;-77
2022/06/30 18:43:49;;;;;;;;;;;;;;;19.36;54.75;99018.13;8319090;28;19935;-77
2022/06/30 18:47:50;;;;;;;;;;;;;;;19.35;54.72;99012.94;8296722;28;19933;-78
2022/06/30 18:51:51;;;;;;;;;;;;;;;19.35;53.99;99020.81;8279471;28;19997;-77
2022/06/30 18:55:53;;;;;;;;;;;;;;;19.27;53.35;99035.19;8291855;28;19976;-77
2022/06/30 18:59:54;;;;;;;;;;;;;;;19.23;53.68;99048.59;8312726;28;19929;-77
2022/06/30 19:03:56;;;;;;;;;;;;;;;19.10;53.25;99071.09;8292510;28;20315;-77
2022/06/30 19:07:57;;;;;;;;;;;;;;;19.01;53.47;99072.34;8307033;28;19930;-77
2022/06/30 19:11:59;;;;;;;;;;;;;;;18.95;53.60;99062.94;8320849;28;19940;-77
2022/06/30 19:16:01;;;;;;;;;;;;;;;18.90;54.13;99066.72;8283137;28;19940;-76
2022/06/30 19:20:03;;;;;;;;;;;;;;;18.80;57.12;99081.16;8309928;28;19929;-77
2022/06/30 19:24:04;;;;;;;;;;;;;;;18.57;56.64;99096.13;8299421;28;20019;-77
2022/06/30 19:28:06;;;;;;;;;;;;;;;18.42;57.35;99117.78;8320730;28;19980;-77
2022/06/30 19:32:11;;;;;;;;;;;;;;;18.29;58.30;99117.41;8310088;28;19929;-77
2022/06/30 19:36:12;;;;;;;;;;;;;;;18.19;57.47;99115.22;8283145;28;19977;-77
2022/06/30 19:40:14;;;;;;;;;;;;;;;18.08;57.69;99129.63;8305655;28;19929;-77
2022/06/30 19:44:16;;;;;;;;;;;;;;;17.97;56.91;99128.38;8298024;28;19930;-76
2022/06/30 19:48:18;;;;;;;;;;;;;;;17.92;56.93;99133.78;8256134;28;19933;-76
2022/06/30 19:52:20;;;;;;;;;;;;;;;17.87;56.47;99145.38;8283976;28;20048;-76
2022/06/30 19:56:21;;;;;;;;;;;;;;;17.85;56.62;99155.09;8309122;28;20372;-76
2022/06/30 20:00:23;;;;;;;;;;;;;;;17.77;56.68;99153.63;8315194;28;19929;-77
2022/06/30 20:13:05;;;;;;;;;;;;;;;17.71;54.99;99166.09;8314797;28;19988;-77
2022/06/30 20:17:07;;;;;;;;;;;;;;;17.73;55.10;99159.88;8302710;28;20405;-77
2022/06/30 20:21:08;;;;;;;;;;;;;;;17.74;55.99;99153.72;8293300;28;19937;-77
2022/06/30 20:25:10;;;;;;;;;;;;;;;17.71;56.30;99153.81;8286885;28;20031;-77
2022/06/30 20:29:12;;;;;;;;;;;;;;;17.69;57.20;99160.06;8303598;28;20302;-77
2022/06/30 20:33:13;;;;;;;;;;;;;;;17.69;57.29;99170.56;8308519;28;20649;-76
2022/06/30 20:37:15;;;;;;;;;;;;;;;17.52;57.73;99185.13;8306753;28;19964;-77
2022/06/30 20:41:37;;;;;;;;;;;;;;;17.52;58.40;99221.03;8325126;28;19929;-77
2022/06/30 20:45:39;;;;;;;;;;;;;;;17.43;59.11;99268.59;8309069;28;19941;-77
2022/06/30 20:54:00;;;;;;;;;;;;;;;17.03;61.57;99285.66;8278407;28;19929;-73
2022/06/30 20:58:01;;;;;;;;;;;;;;;16.90;63.20;99302.72;8303924;28;19929;-74
2022/06/30 21:02:03;;;;;;;;;;;;;;;16.79;64.06;99307.41;8304129;28;19944;-74
2022/06/30 21:06:05;;;;;;;;;;;;;;;16.56;65.43;99292.38;8318814;28;19936;-74
2022/06/30 21:10:06;;;;;;;;;;;;;;;16.47;66.71;99288.25;8303282;28;19933;-75
2022/06/30 21:14:08;;;;;;;;;;;;;;;16.35;67.32;99291.25;8312612;28;19930;-76
2022/06/30 21:18:09;;;;;;;;;;;;;;;16.26;68.21;99308.09;8296238;28;20318;-77
2022/06/30 21:22:11;;;;;;;;;;;;;;;16.06;69.96;99307.78;8282250;28;19936;-76
2022/06/30 21:26:12;;;;;;;;;;;;;;;15.93;72.15;99295.94;8317030;28;19939;-76
2022/06/30 21:30:14;;;;;;;;;;;;;;;16.01;73.20;99304.44;8309560;28;20412;-76
2022/06/30 21:34:15;;;;;;;;;;;;;;;15.93;73.25;99290.69;8312998;28;19929;-77
2022/06/30 21:38:17;;;;;;;;;;;;;;;15.87;73.84;99289.13;8302439;28;19933;-76
2022/06/30 21:42:18;;;;;;;;;;;;;;;15.83;74.67;99295.34;8289950;28;19933;-76
2022/06/30 21:46:21;;;;;;;;;;;;;;;15.81;75.51;99291.91;8280062;28;20282;-76
2022/06/30 21:50:22;;;;;;;;;;;;;;;15.75;76.02;99292.06;8325341;28;20312;-76
2022/06/30 21:54:24;;;;;;;;;;;;;;;15.69;76.19;99305.31;8303555;28;19929;-75
2022/06/30 21:58:25;;;;;;;;;;;;;;;15.59;76.13;99316.91;8288398;28;19929;-76